»·PEaware :: N738VJ WA24-CYYC

N738VJ :: WA24-CYYC

FLIGHT INFORMATION

Flight Status: Arrived
Operator: Privately registered:
United States
More flights under this callsign
Pilot: Tom O. (3715)
Aircraft: CESSNA 172 SKYHAWK
(C172)
More flights by this aircraft type
Origin: WA24 Pfister S
United States
Destination: CYYC Calgary Intl
Canada
More flights between these airports :: More routes between these airports
Route: GPS DCT
File this flight plan on PilotEdge
Remarks: STUDENT CROSS COUNTRY
Altitude:
(Current/Filed)
9,500ft
Speed:
(Current/Filed)
105kts
Departed: 16-Nov-20 12:00 PM
Arrived: 16-Nov-20 02:50 PM
Distance/Time
Traveled:
346nm/2:50
Distance/Time
To Go:
Arrived

Flight Plot

Page will automatically refresh every two minutes.

Flight plan parsing failed; only flown route is shown


Map Options




Map Legend


Flown Route
Filed Route
Departure Airport
Arrival Airport
Navaid (VOR, NDB)
Fix

Horizontal Profiles

Position Reports

Time Latitude Longitude Heading Altitude Ground
Speed
16-Nov-20 11:58 46.485664 -118.936181 30 2042ft 126kts
16-Nov-20 11:59 46.516174 -118.910604 26 2020ft 127kts
16-Nov-20 12:00 46.547104 -118.885291 27 1997ft 127kts
16-Nov-20 12:01 46.577808 -118.859833 27 1999ft 126kts
16-Nov-20 12:02 46.608802 -118.835940 6 1999ft 125kts
16-Nov-20 12:03 46.631057 -118.800974 35 2325ft 110kts
16-Nov-20 12:04 46.654517 -118.777976 29 3018ft 97kts
16-Nov-20 12:05 46.677361 -118.756202 30 3725ft 98kts
16-Nov-20 12:06 46.699745 -118.734770 29 4532ft 86kts
16-Nov-20 12:07 46.717310 -118.717911 31 5129ft 88kts
16-Nov-20 12:08 46.741166 -118.694988 31 5426ft 119kts
16-Nov-20 12:09 46.771403 -118.665940 30 5372ft 122kts
16-Nov-20 12:10 46.797520 -118.640813 31 5873ft 119kts
16-Nov-20 12:11 46.825141 -118.614182 30 6286ft 108kts
16-Nov-20 12:12 46.849039 -118.591122 30 6908ft 104kts
16-Nov-20 12:13 46.872731 -118.568237 30 7597ft 85kts
16-Nov-20 12:14 46.893331 -118.548305 30 8113ft 90kts
16-Nov-20 12:15 46.914286 -118.528027 30 8618ft 89kts
16-Nov-20 12:16 46.934813 -118.508143 30 9113ft 87kts
16-Nov-20 12:17 46.955413 -118.488157 31 9481ft 99kts
16-Nov-20 12:19 46.981712 -118.462629 31 9497ft 122kts
16-Nov-20 12:20 47.010479 -118.434684 31 9493ft 124kts
16-Nov-20 12:21 47.039432 -118.406499 31 9495ft 125kts
16-Nov-20 12:22 47.066980 -118.379651 31 9500ft 125kts
16-Nov-20 12:23 47.095910 -118.351426 31 9499ft 125kts
16-Nov-20 12:24 47.124823 -118.323172 31 9500ft 124kts
16-Nov-20 12:25 47.153793 -118.294826 31 9500ft 124kts
16-Nov-20 12:26 47.182665 -118.266540 31 9500ft 125kts
16-Nov-20 12:27 47.211571 -118.238184 31 9499ft 124kts
16-Nov-20 12:28 47.240414 -118.209851 31 9500ft 124kts
16-Nov-20 12:29 47.269265 -118.181473 31 9503ft 125kts
16-Nov-20 12:30 47.298318 -118.152859 31 9497ft 125kts
16-Nov-20 12:31 47.327259 -118.124316 31 9499ft 125kts
16-Nov-20 12:32 47.356215 -118.095721 31 9501ft 125kts
16-Nov-20 12:33 47.385134 -118.067121 31 9498ft 125kts
16-Nov-20 12:34 47.414102 -118.038438 31 9499ft 125kts
16-Nov-20 12:35 47.443011 -118.009772 31 9498ft 124kts
16-Nov-20 12:36 47.471996 -117.980994 31 9498ft 125kts
16-Nov-20 12:37 47.500806 -117.952349 31 9499ft 125kts
16-Nov-20 12:38 47.529736 -117.923550 31 9498ft 124kts
16-Nov-20 12:38 47.553724 -117.899638 31 9500ft 125kts
16-Nov-20 12:39 47.582656 -117.870763 31 9497ft 124kts
16-Nov-20 12:41 47.616071 -117.837365 31 9500ft 124kts
16-Nov-20 12:41 47.640102 -117.813312 31 9500ft 125kts
16-Nov-20 12:42 47.668953 -117.784399 31 9501ft 125kts
16-Nov-20 12:43 47.697711 -117.755544 31 9500ft 125kts
16-Nov-20 12:44 47.726512 -117.726604 31 9499ft 125kts
16-Nov-20 12:45 47.755389 -117.697547 31 9499ft 125kts
16-Nov-20 12:46 47.784178 -117.668541 31 9499ft 125kts
16-Nov-20 12:47 47.812875 -117.639589 31 9496ft 124kts
16-Nov-20 12:48 47.841406 -117.610763 32 9501ft 124kts
16-Nov-20 12:49 47.870277 -117.581561 31 9497ft 125kts
16-Nov-20 12:50 47.899064 -117.552394 32 9498ft 125kts
16-Nov-20 12:51 47.927818 -117.523223 31 9499ft 124kts
16-Nov-20 12:52 47.956514 -117.494074 32 9500ft 125kts
16-Nov-20 12:53 47.985320 -117.464771 31 9500ft 125kts
16-Nov-20 12:54 48.014099 -117.435457 31 9499ft 125kts
16-Nov-20 12:55 48.042789 -117.406193 32 9497ft 125kts
16-Nov-20 12:56 48.071578 -117.376786 32 9502ft 126kts
16-Nov-20 12:57 48.100446 -117.347258 32 9501ft 125kts
16-Nov-20 12:58 48.129505 -117.317494 32 9503ft 127kts
16-Nov-20 12:59 48.158461 -117.287795 32 9498ft 125kts
16-Nov-20 13:00 48.187305 -117.258168 32 9498ft 125kts
16-Nov-20 13:01 48.216066 -117.228587 32 9494ft 124kts
16-Nov-20 13:02 48.244558 -117.199240 32 9504ft 124kts
16-Nov-20 13:03 48.273278 -117.169617 32 9507ft 125kts
16-Nov-20 13:04 48.302001 -117.139953 32 9502ft 125kts
16-Nov-20 13:05 48.330604 -117.110370 32 9497ft 125kts
16-Nov-20 13:06 48.359065 -117.080893 32 9499ft 124kts
16-Nov-20 13:07 48.387666 -117.051229 32 9498ft 124kts
16-Nov-20 13:08 48.416368 -117.021419 32 9497ft 126kts
16-Nov-20 13:09 48.445209 -116.991425 32 9498ft 125kts
16-Nov-20 13:10 48.473949 -116.961490 32 9507ft 126kts
16-Nov-20 13:11 48.502675 -116.931531 32 9501ft 125kts
16-Nov-20 13:12 48.531338 -116.901601 32 9491ft 124kts
16-Nov-20 13:13 48.559779 -116.871850 32 9502ft 125kts
16-Nov-20 13:14 48.588428 -116.841846 32 9500ft 125kts
16-Nov-20 13:15 48.617353 -116.811507 32 9510ft 128kts
16-Nov-20 13:16 48.646662 -116.780726 32 9482ft 125kts
16-Nov-20 13:17 48.675221 -116.750691 32 9509ft 126kts
16-Nov-20 13:18 48.704083 -116.720282 32 9499ft 126kts
16-Nov-20 13:19 48.732684 -116.690117 32 9514ft 125kts
16-Nov-20 13:20 48.761433 -116.659753 32 9503ft 124kts
16-Nov-20 13:21 48.790551 -116.628943 32 9516ft 131kts
16-Nov-20 13:22 48.819505 -116.598277 32 9492ft 123kts
16-Nov-20 13:23 48.847956 -116.568091 32 9504ft 126kts
16-Nov-20 13:24 48.877169 -116.537054 32 9494ft 128kts
16-Nov-20 13:25 48.906285 -116.506081 33 9496ft 127kts
16-Nov-20 13:26 48.934593 -116.475919 32 9501ft 124kts
16-Nov-20 13:27 48.963113 -116.445491 32 9504ft 125kts
16-Nov-20 13:28 48.991834 -116.414803 33 9517ft 128kts
16-Nov-20 13:29 49.021537 -116.383024 33 9481ft 127kts
16-Nov-20 13:30 49.050141 -116.352370 32 9500ft 124kts
16-Nov-20 13:31 49.078670 -116.321752 32 9491ft 124kts
16-Nov-20 13:32 49.106636 -116.291692 32 9506ft 123kts
16-Nov-20 13:33 49.134592 -116.261611 32 9497ft 122kts
16-Nov-20 13:34 49.162725 -116.231293 32 9514ft 126kts
16-Nov-20 13:35 49.191917 -116.199784 33 9500ft 129kts
16-Nov-20 13:36 49.221205 -116.168131 33 9486ft 127kts
16-Nov-20 13:37 49.249582 -116.137413 33 9518ft 127kts
16-Nov-20 13:38 49.278416 -116.106162 33 9497ft 125kts
16-Nov-20 13:39 49.306730 -116.075423 33 9490ft 122kts
16-Nov-20 13:40 49.334831 -116.044870 33 9510ft 126kts
16-Nov-20 13:41 49.363481 -116.013687 32 9485ft 123kts
16-Nov-20 13:42 49.391606 -115.983016 33 9513ft 127kts
16-Nov-20 13:43 49.420553 -115.951412 33 9494ft 126kts
16-Nov-20 13:44 49.449078 -115.920222 33 9497ft 125kts
16-Nov-20 13:45 49.477254 -115.889366 33 9512ft 125kts
16-Nov-20 13:46 49.505789 -115.858072 33 9496ft 125kts
16-Nov-20 13:47 49.534046 -115.827044 33 9496ft 124kts
16-Nov-20 13:48 49.562268 -115.796002 33 9506ft 126kts
16-Nov-20 13:49 49.589438 -115.766083 32 9836ft 104kts
16-Nov-20 13:50 49.610532 -115.742828 32 10423ft 90kts
16-Nov-20 13:51 49.634423 -115.716419 33 10508ft 119kts
16-Nov-20 13:52 49.662418 -115.685493 33 10494ft 125kts
16-Nov-20 13:53 49.690851 -115.654016 33 10499ft 126kts
16-Nov-20 13:54 49.719542 -115.622202 33 10516ft 129kts
16-Nov-20 13:55 49.748998 -115.589494 33 10487ft 128kts
16-Nov-20 13:56 49.777158 -115.558176 33 10488ft 121kts
16-Nov-20 13:57 49.804483 -115.527744 33 10516ft 121kts
16-Nov-20 13:58 49.832468 -115.496522 33 10507ft 127kts
16-Nov-20 13:59 49.861458 -115.464152 33 10475ft 125kts
16-Nov-20 14:00 49.889400 -115.432893 33 10519ft 127kts
16-Nov-20 14:01 49.918031 -115.400821 33 10499ft 125kts
16-Nov-20 14:02 49.946734 -115.368616 33 10499ft 127kts
16-Nov-20 14:03 49.975411 -115.336390 33 10476ft 122kts
16-Nov-20 14:04 50.002584 -115.305817 33 10525ft 123kts
16-Nov-20 14:05 50.027824 -115.277378 33 10966ft 112kts
16-Nov-20 14:06 50.054467 -115.247303 33 11004ft 123kts
16-Nov-20 14:07 50.083277 -115.214754 33 10992ft 130kts
16-Nov-20 14:08 50.111126 -115.183241 33 10999ft 122kts
16-Nov-20 14:09 50.139750 -115.150793 33 11003ft 130kts
16-Nov-20 14:10 50.168605 -115.118046 33 10992ft 125kts
16-Nov-20 14:11 50.197345 -115.085367 34 10983ft 127kts
16-Nov-20 14:12 50.225261 -115.053584 33 11016ft 125kts
16-Nov-20 14:13 50.252991 -115.021969 33 10985ft 120kts
16-Nov-20 14:14 50.280731 -114.990288 34 11002ft 125kts
16-Nov-20 14:15 50.309027 -114.957924 34 11012ft 128kts
16-Nov-20 14:17 50.336952 -114.925947 34 10985ft 120kts
16-Nov-20 14:18 50.364570 -114.894265 34 11019ft 127kts
16-Nov-20 14:19 50.393369 -114.861183 34 10999ft 128kts
16-Nov-20 14:20 50.421391 -114.828946 34 11002ft 123kts
16-Nov-20 14:21 50.449191 -114.796912 33 11003ft 124kts
16-Nov-20 14:22 50.477330 -114.764438 34 11006ft 127kts
16-Nov-20 14:23 50.505690 -114.731667 34 10996ft 127kts
16-Nov-20 14:24 50.533891 -114.699017 34 11011ft 129kts
16-Nov-20 14:25 50.561764 -114.666712 34 11000ft 122kts
16-Nov-20 14:26 50.589457 -114.634562 34 11003ft 124kts
16-Nov-20 14:27 50.617441 -114.602021 34 10998ft 125kts
16-Nov-20 14:28 50.645397 -114.569466 34 10999ft 125kts
16-Nov-20 14:29 50.673534 -114.536652 34 11006ft 126kts
16-Nov-20 14:30 50.701875 -114.503548 34 10994ft 126kts
16-Nov-20 14:31 50.730007 -114.470638 34 11001ft 125kts
16-Nov-20 14:32 50.758038 -114.437797 34 11001ft 126kts
16-Nov-20 14:33 50.786281 -114.404656 34 10999ft 126kts
16-Nov-20 14:34 50.813900 -114.372197 34 10998ft 125kts
16-Nov-20 14:34 50.837637 -114.344245 34 10576ft 131kts
16-Nov-20 14:36 50.870804 -114.305173 34 9165ft 119kts
16-Nov-20 14:36 50.892708 -114.279317 34 8165ft 117kts
16-Nov-20 14:38 50.923069 -114.243421 34 6768ft 116kts
16-Nov-20 14:38 50.944615 -114.217913 34 5770ft 115kts
16-Nov-20 14:40 50.973915 -114.183172 34 4677ft 98kts
16-Nov-20 14:40 50.990544 -114.163465 33 4624ft 100kts
16-Nov-20 14:41 51.017527 -114.131353 34 4601ft 130kts
16-Nov-20 14:42 51.046485 -114.096902 34 4594ft 130kts
16-Nov-20 14:43 51.075335 -114.062507 35 4595ft 130kts
16-Nov-20 14:44 51.104370 -114.028105 29 4591ft 128kts
16-Nov-20 14:45 51.134320 -114.012167 334 4620ft 97kts
16-Nov-20 14:46 51.156063 -113.998415 323 4785ft 88kts
16-Nov-20 14:47 51.147837 -114.021001 187 4178ft 71kts
16-Nov-20 14:48 51.128386 -114.021269 188 3554ft 50kts
16-Nov-20 14:49 51.126044 -114.019445 87 3556ft 0kts
16-Nov-20 14:50 51.125969 -114.017295 48 3556ft 7kts
16-Nov-20 14:51 51.125550 -114.011450 105 3558ft 16kts
16-Nov-20 14:52 51.124903 -114.011859 268 3557ft 0kts

Navigation Log

Ident Type
Flight plan parsing failed, navigation log unavailable